createdAt,value
2023-02-27T00:00:00.440Z,0.00
2023-02-27T00:04:03.083Z,0.00
2023-02-27T00:08:05.541Z,0.00
2023-02-27T00:12:08.886Z,0.00
2023-02-27T00:16:12.868Z,0.00
2023-02-27T00:20:18.208Z,0.00
2023-02-27T00:24:22.547Z,0.00
2023-02-27T00:28:24.938Z,0.00
2023-02-27T00:32:27.434Z,0.00
2023-02-27T00:36:29.619Z,0.00
2023-02-27T00:40:36.114Z,0.00
2023-02-27T00:44:38.701Z,0.00
2023-02-27T00:48:42.070Z,0.00
2023-02-27T00:52:44.192Z,0.00
2023-02-27T00:56:46.908Z,0.00
2023-02-27T01:00:49.119Z,0.00
2023-02-27T01:04:51.473Z,0.00
2023-02-27T01:08:54.067Z,0.00
2023-02-27T01:12:56.349Z,0.00
2023-02-27T01:16:59.148Z,0.00
2023-02-27T01:21:02.544Z,0.00
2023-02-27T01:25:05.649Z,0.00
2023-02-27T01:29:07.855Z,0.00
2023-02-27T01:33:10.274Z,0.00
2023-02-27T01:37:15.215Z,0.00
2023-02-27T01:41:18.258Z,0.00
2023-02-27T01:45:28.093Z,0.00
2023-02-27T01:49:34.826Z,0.00
2023-02-27T01:53:41.129Z,0.00
2023-02-27T01:57:46.504Z,0.00
2023-02-27T02:01:51.367Z,0.00
2023-02-27T02:06:01.597Z,0.00
2023-02-27T02:10:08.166Z,0.00
2023-02-27T02:14:11.108Z,0.00
2023-02-27T02:18:22.005Z,0.00
2023-02-27T02:22:42.848Z,0.00
2023-02-27T02:27:01.316Z,0.00
2023-02-27T02:31:37.701Z,0.00
2023-02-27T02:36:03.947Z,0.00
2023-02-27T02:40:17.829Z,0.00
2023-02-27T02:44:38.256Z,0.00
2023-02-27T02:48:56.595Z,0.00
2023-02-27T02:53:36.043Z,0.00
2023-02-27T02:58:12.779Z,0.00
2023-02-27T03:02:20.340Z,0.00
2023-02-27T03:06:29.648Z,0.00
2023-02-27T03:10:57.865Z,0.00
2023-02-27T03:15:11.454Z,0.00
2023-02-27T03:19:19.162Z,0.00
2023-02-27T03:23:28.339Z,0.00
2023-02-27T03:27:38.655Z,0.00
2023-02-27T03:31:56.889Z,0.00
2023-02-27T03:36:32.562Z,0.00
2023-02-27T03:40:40.979Z,0.00
2023-02-27T03:44:58.184Z,0.00
2023-02-27T03:49:00.351Z,0.00
2023-02-27T03:53:06.709Z,0.00
2023-02-27T03:57:09.219Z,0.00
2023-02-27T04:01:11.990Z,0.00
2023-02-27T04:05:14.448Z,0.00
2023-02-27T04:09:41.818Z,0.00
2023-02-27T04:13:55.944Z,0.00
2023-02-27T04:18:04.414Z,0.00
2023-02-27T04:22:28.229Z,0.00
2023-02-27T04:26:39.659Z,0.00
2023-02-27T04:31:19.437Z,0.00
2023-02-27T04:35:29.509Z,0.00
2023-02-27T04:39:38.757Z,0.00
2023-02-27T04:43:44.199Z,0.00
2023-02-27T04:48:21.487Z,0.00
2023-02-27T04:52:39.451Z,0.00
2023-02-27T04:56:47.607Z,0.00
2023-02-27T05:00:58.254Z,0.00
2023-02-27T05:05:04.342Z,0.00
2023-02-27T05:09:20.553Z,0.00
2023-02-27T05:13:31.059Z,0.00
2023-02-27T05:17:47.422Z,0.00
2023-02-27T05:22:15.745Z,0.00
2023-02-27T05:26:25.175Z,0.00
2023-02-27T05:30:32.040Z,0.00
2023-02-27T05:34:52.753Z,0.00
2023-02-27T05:39:00.079Z,0.00
2023-02-27T05:43:28.474Z,0.00
2023-02-27T05:47:32.645Z,0.05
2023-02-27T05:51:39.388Z,0.00
2023-02-27T05:55:47.532Z,0.00
2023-02-27T06:00:19.028Z,0.08
2023-02-27T06:04:22.011Z,0.00
2023-02-27T06:08:24.632Z,0.00
2023-02-27T06:12:26.867Z,0.00
2023-02-27T06:16:30.482Z,0.00
2023-02-27T06:20:34.459Z,0.00
2023-02-27T06:24:37.114Z,0.00
2023-02-27T06:28:39.711Z,0.00
2023-02-27T06:32:41.837Z,0.00
2023-02-27T06:36:44.145Z,0.00
2023-02-27T06:40:46.351Z,0.10
2023-02-27T06:44:48.394Z,0.00
2023-02-27T06:48:50.485Z,0.03
2023-02-27T06:52:52.630Z,0.30
2023-02-27T06:56:54.760Z,0.00
2023-02-27T07:01:00.012Z,0.00
2023-02-27T07:05:07.947Z,0.00
2023-02-27T07:09:10.533Z,0.10
2023-02-27T07:13:19.370Z,0.10
2023-02-27T07:17:22.622Z,0.00
2023-02-27T07:21:25.138Z,0.00
2023-02-27T07:25:27.367Z,0.00
2023-02-27T07:29:29.436Z,0.00
2023-02-27T07:33:54.788Z,0.00
2023-02-27T07:37:58.713Z,0.00
2023-02-27T07:42:03.479Z,0.00
2023-02-27T07:46:05.730Z,0.03
2023-02-27T07:50:08.972Z,0.15
2023-02-27T07:54:11.060Z,0.20
2023-02-27T07:58:13.328Z,0.10
2023-02-27T08:02:15.707Z,0.30
2023-02-27T08:06:17.779Z,0.00
2023-02-27T08:10:20.771Z,0.10
2023-02-27T08:14:23.165Z,0.10
2023-02-27T08:18:25.774Z,0.13
2023-02-27T08:22:28.109Z,0.20
2023-02-27T08:26:31.411Z,0.30
2023-02-27T08:30:33.555Z,0.30
2023-02-27T08:34:37.929Z,0.57
2023-02-27T08:38:40.011Z,0.30
2023-02-27T08:42:42.249Z,0.22
2023-02-27T08:46:44.880Z,0.40
2023-02-27T08:50:47.763Z,0.50
2023-02-27T08:54:49.843Z,0.30
2023-02-27T08:58:52.063Z,0.40
2023-02-27T09:02:54.157Z,0.20
2023-02-27T09:06:57.770Z,0.20
2023-02-27T09:10:59.880Z,0.30
2023-02-27T09:15:01.973Z,0.15
2023-02-27T09:19:04.718Z,0.20
2023-02-27T09:23:07.786Z,0.20
2023-02-27T09:27:09.873Z,0.25
2023-02-27T09:31:12.932Z,0.50
2023-02-27T09:35:22.732Z,0.30
2023-02-27T09:39:24.792Z,0.20
2023-02-27T09:43:50.836Z,0.20
2023-02-27T09:48:30.715Z,0.45
2023-02-27T09:52:35.499Z,0.20
2023-02-27T09:57:00.848Z,0.45
2023-02-27T10:01:14.348Z,0.00
2023-02-27T10:05:25.384Z,0.10
2023-02-27T10:09:39.492Z,0.10
2023-02-27T10:14:00.103Z,0.03
2023-02-27T10:18:23.967Z,0.00
2023-02-27T10:22:36.395Z,0.10
2023-02-27T10:26:42.807Z,0.10
2023-02-27T10:30:49.281Z,0.10
2023-02-27T10:35:11.340Z,0.40
2023-02-27T10:39:17.493Z,0.00
2023-02-27T10:43:21.266Z,0.10
2023-02-27T10:47:26.045Z,0.03
2023-02-27T10:55:38.403Z,0.15
2023-02-27T10:59:41.984Z,0.00
2023-02-27T11:03:44.813Z,0.00
2023-02-27T11:07:48.067Z,0.00
2023-02-27T11:11:51.538Z,0.10
2023-02-27T11:16:18.546Z,0.10
2023-02-27T11:20:36.257Z,0.10
2023-02-27T11:24:38.441Z,0.10
2023-02-27T11:28:42.484Z,0.10
2023-02-27T11:32:48.208Z,0.43
2023-02-27T11:37:04.446Z,0.40
2023-02-27T11:41:09.464Z,0.03
2023-02-27T11:46:04.305Z,0.10
2023-02-27T11:50:32.305Z,0.00
2023-02-27T11:54:58.678Z,0.10
2023-02-27T11:59:25.206Z,0.00
2023-02-27T12:03:37.334Z,0.00
2023-02-27T12:08:42.894Z,0.00
2023-02-27T12:13:03.255Z,0.00
2023-02-27T12:17:24.022Z,0.10
2023-02-27T12:21:46.947Z,0.08
2023-02-27T12:26:14.009Z,0.03
2023-02-27T12:30:22.609Z,0.03
2023-02-27T12:34:41.041Z,0.10
2023-02-27T12:38:43.383Z,0.00
2023-02-27T12:42:54.494Z,0.00
2023-02-27T12:47:27.502Z,0.03
2023-02-27T12:51:48.697Z,0.20
2023-02-27T12:56:23.400Z,0.00
2023-02-27T13:00:30.266Z,0.00
2023-02-27T13:04:46.346Z,0.10
2023-02-27T13:08:57.362Z,0.32
2023-02-27T13:13:34.942Z,0.00
2023-02-27T13:17:48.587Z,0.00
2023-02-27T13:21:52.705Z,0.10
2023-02-27T13:25:58.250Z,0.20
2023-02-27T13:30:03.544Z,0.00
2023-02-27T13:34:23.491Z,0.28
2023-02-27T13:38:46.246Z,0.10
2023-02-27T13:42:48.240Z,0.10
2023-02-27T13:46:50.432Z,0.03
2023-02-27T13:50:53.077Z,0.20
2023-02-27T13:54:59.854Z,0.20
2023-02-27T13:59:20.296Z,0.10
2023-02-27T14:03:26.243Z,0.22
2023-02-27T14:07:32.231Z,0.05
2023-02-27T14:11:39.997Z,0.30
2023-02-27T14:15:51.789Z,0.08
2023-02-27T14:19:57.308Z,0.10
2023-02-27T14:23:59.742Z,0.30
2023-02-27T14:28:02.909Z,0.20
2023-02-27T14:32:09.468Z,0.13
2023-02-27T14:36:23.693Z,0.10
2023-02-27T14:40:48.387Z,0.03
2023-02-27T14:44:51.687Z,0.08
2023-02-27T14:48:56.322Z,0.25
2023-02-27T14:57:04.442Z,0.30
2023-02-27T15:01:10.127Z,0.35
2023-02-27T15:05:16.758Z,0.57
2023-02-27T15:09:25.711Z,0.20
2023-02-27T15:13:32.162Z,0.38
2023-02-27T15:17:42.857Z,0.20
2023-02-27T15:21:50.349Z,0.50
2023-02-27T15:25:57.620Z,0.40
2023-02-27T15:30:00.669Z,0.40
2023-02-27T15:34:04.004Z,0.30
2023-02-27T15:38:07.737Z,0.60
2023-02-27T15:42:10.721Z,0.37
2023-02-27T15:46:12.829Z,0.60
2023-02-27T15:50:17.905Z,0.60
2023-02-27T15:54:22.956Z,0.55
2023-02-27T15:58:26.794Z,0.50
2023-02-27T16:02:33.928Z,0.43
2023-02-27T16:06:39.205Z,0.43
2023-02-27T16:10:43.710Z,0.40
2023-02-27T16:14:46.037Z,0.65
2023-02-27T16:18:51.253Z,0.70
2023-02-27T16:23:15.469Z,0.55
2023-02-27T16:27:24.907Z,0.95
2023-02-27T16:31:31.725Z,1.00
2023-02-27T16:35:35.471Z,0.98
2023-02-27T16:39:37.634Z,0.80
2023-02-27T16:43:40.095Z,0.80
2023-02-27T16:47:42.529Z,1.00
2023-02-27T16:51:44.683Z,0.85
2023-02-27T16:55:46.922Z,1.48
2023-02-27T16:59:49.032Z,1.13
2023-02-27T17:03:51.079Z,1.40
2023-02-27T17:07:53.224Z,1.30
2023-02-27T17:11:56.438Z,1.05
2023-02-27T17:15:59.831Z,1.63
2023-02-27T17:20:06.720Z,1.30
2023-02-27T17:24:09.363Z,1.45
2023-02-27T17:28:12.077Z,2.15
2023-02-27T17:32:14.224Z,2.60
2023-02-27T17:36:17.124Z,1.38
2023-02-27T17:40:19.186Z,1.27
2023-02-27T17:44:21.560Z,1.42
2023-02-27T17:48:24.256Z,1.80
2023-02-27T17:52:27.625Z,1.42
2023-02-27T17:56:30.489Z,1.33
2023-02-27T18:00:32.811Z,1.20
2023-02-27T18:04:35.668Z,1.33
2023-02-27T18:08:37.751Z,1.60
2023-02-27T18:12:40.282Z,1.60
2023-02-27T18:16:42.710Z,1.40
2023-02-27T18:20:45.363Z,2.05
2023-02-27T18:24:48.149Z,1.23
2023-02-27T18:28:52.967Z,0.82
2023-02-27T18:32:58.702Z,0.98
2023-02-27T18:37:00.795Z,0.90
2023-02-27T18:41:06.067Z,1.10
2023-02-27T18:45:09.478Z,1.20
2023-02-27T18:49:11.731Z,1.17
2023-02-27T18:53:13.817Z,1.10
2023-02-27T18:57:16.400Z,0.95
2023-02-27T19:01:30.735Z,0.80
2023-02-27T19:05:32.836Z,1.08
2023-02-27T19:09:35.192Z,1.27
2023-02-27T19:13:37.254Z,1.63
2023-02-27T19:17:39.798Z,0.80
2023-02-27T19:21:42.164Z,1.42
2023-02-27T19:25:46.049Z,1.40
2023-02-27T19:29:48.112Z,1.35
2023-02-27T19:33:50.927Z,1.05
2023-02-27T19:37:58.242Z,5.35
2023-02-27T19:42:00.480Z,1.15
2023-02-27T19:46:08.798Z,1.45
2023-02-27T19:50:11.707Z,1.00
2023-02-27T19:54:15.790Z,1.00
2023-02-27T19:58:17.869Z,0.95
2023-02-27T20:02:20.266Z,0.90
2023-02-27T20:06:24.559Z,0.60
2023-02-27T20:10:26.702Z,0.98
2023-02-27T20:14:29.342Z,0.90
2023-02-27T20:19:05.819Z,0.90
2023-02-27T20:23:06.054Z,0.70
2023-02-27T20:27:08.561Z,1.70
2023-02-27T20:31:12.914Z,1.13
2023-02-27T20:39:18.418Z,1.38
2023-02-27T20:43:20.623Z,2.13
2023-02-27T20:47:23.001Z,1.60
2023-02-27T20:51:26.473Z,1.63
2023-02-27T20:55:29.218Z,1.27
2023-02-27T20:59:31.709Z,2.42
2023-02-27T21:03:38.529Z,4.00
2023-02-27T21:07:41.106Z,2.00
2023-02-27T21:11:43.276Z,1.85
2023-02-27T21:15:46.208Z,3.70
2023-02-27T21:19:48.627Z,3.20
2023-02-27T21:23:52.185Z,1.33
2023-02-27T21:28:02.211Z,3.95
2023-02-27T21:32:04.703Z,1.38
2023-02-27T21:36:07.527Z,1.20
2023-02-27T21:40:10.892Z,1.58
2023-02-27T21:44:15.090Z,1.08
2023-02-27T21:48:18.222Z,1.38
2023-02-27T21:52:20.372Z,1.10
2023-02-27T21:56:22.550Z,1.20
2023-02-27T22:00:27.599Z,1.10
2023-02-27T22:04:29.766Z,1.00
2023-02-27T22:08:31.795Z,0.95
2023-02-27T22:12:33.995Z,1.30
2023-02-27T22:16:36.278Z,1.05
2023-02-27T22:20:39.609Z,1.38
2023-02-27T22:24:42.395Z,1.33
2023-02-27T22:28:44.653Z,1.17
2023-02-27T22:32:46.772Z,1.45
2023-02-27T22:36:52.456Z,1.30
2023-02-27T22:40:54.971Z,1.50
2023-02-27T22:44:57.131Z,1.00
2023-02-27T22:49:01.351Z,1.30
2023-02-27T22:53:03.421Z,1.83
2023-02-27T22:57:05.967Z,1.52
2023-02-27T23:01:16.894Z,1.80
2023-02-27T23:05:19.020Z,1.50
2023-02-27T23:09:24.575Z,1.50
2023-02-27T23:13:26.910Z,1.42
2023-02-27T23:17:29.182Z,1.50
2023-02-27T23:21:37.008Z,1.60
2023-02-27T23:25:39.326Z,1.25
2023-02-27T23:29:41.604Z,2.67
2023-02-27T23:33:43.802Z,1.60
2023-02-27T23:37:45.971Z,1.40
2023-02-27T23:41:48.116Z,1.10
2023-02-27T23:45:50.344Z,1.40
2023-02-27T23:49:52.465Z,1.70
2023-02-27T23:53:54.587Z,1.48
2023-02-27T23:57:58.627Z,1.55
